sensor_id;sensor_type;location;lat;lon;timestamp;pressure;altitude;pressure_sealevel;temperature;humidity
71996;BME280;59862;47.732;7.346;2023-02-26T00:01:30;97472.66;;;0.18;65.41
71996;BME280;59862;47.732;7.346;2023-02-26T00:04:00;97468.78;;;0.07;64.57
71996;BME280;59862;47.732;7.346;2023-02-26T00:06:30;97477.22;;;0.00;64.05
71996;BME280;59862;47.732;7.346;2023-02-26T00:08:58;97480.05;;;-0.07;63.85
71996;BME280;59862;47.732;7.346;2023-02-26T00:11:25;97486.53;;;-0.11;63.78
71996;BME280;59862;47.732;7.346;2023-02-26T00:13:53;97483.80;;;-0.15;63.99
71996;BME280;59862;47.732;7.346;2023-02-26T00:16:27;97485.17;;;-0.20;64.41
71996;BME280;59862;47.732;7.346;2023-02-26T00:18:56;97477.38;;;-0.22;64.55
71996;BME280;59862;47.732;7.346;2023-02-26T00:21:25;97478.73;;;-0.27;64.84
71996;BME280;59862;47.732;7.346;2023-02-26T00:23:54;97479.64;;;-0.38;64.77
71996;BME280;59862;47.732;7.346;2023-02-26T00:26:23;97487.45;;;-0.42;64.36
71996;BME280;59862;47.732;7.346;2023-02-26T00:28:52;97489.16;;;-0.46;63.87
71996;BME280;59862;47.732;7.346;2023-02-26T00:31:20;97479.37;;;-0.50;63.88
71996;BME280;59862;47.732;7.346;2023-02-26T00:33:50;97488.83;;;-0.53;63.66
71996;BME280;59862;47.732;7.346;2023-02-26T00:36:24;97489.69;;;-0.58;63.96
71996;BME280;59862;47.732;7.346;2023-02-26T00:39:00;97494.00;;;-0.57;64.64
71996;BME280;59862;47.732;7.346;2023-02-26T00:41:26;97494.24;;;-0.60;64.81
71996;BME280;59862;47.732;7.346;2023-02-26T00:43:56;97491.75;;;-0.67;65.19
71996;BME280;59862;47.732;7.346;2023-02-26T00:46:51;97490.53;;;-0.57;65.54
71996;BME280;59862;47.732;7.346;2023-02-26T00:51:55;97484.80;;;-0.62;65.21
71996;BME280;59862;47.732;7.346;2023-02-26T00:54:26;97483.24;;;-0.65;65.02
71996;BME280;59862;47.732;7.346;2023-02-26T00:56:55;97489.73;;;-0.69;64.61
71996;BME280;59862;47.732;7.346;2023-02-26T00:59:24;97485.78;;;-0.69;64.47
71996;BME280;59862;47.732;7.346;2023-02-26T01:01:52;97486.77;;;-0.76;64.10
71996;BME280;59862;47.732;7.346;2023-02-26T01:04:21;97491.93;;;-0.74;63.92
71996;BME280;59862;47.732;7.346;2023-02-26T01:06:56;97487.98;;;-0.74;63.88
71996;BME280;59862;47.732;7.346;2023-02-26T01:09:33;97491.70;;;-0.77;63.39
71996;BME280;59862;47.732;7.346;2023-02-26T01:12:06;97493.95;;;-0.72;63.62
71996;BME280;59862;47.732;7.346;2023-02-26T01:17:26;97497.91;;;-0.78;63.39
71996;BME280;59862;47.732;7.346;2023-02-26T01:20:04;97497.47;;;-0.83;63.56
71996;BME280;59862;47.732;7.346;2023-02-26T01:22:36;97494.13;;;-0.90;63.34
71996;BME280;59862;47.732;7.346;2023-02-26T01:25:06;97490.69;;;-0.96;63.81
71996;BME280;59862;47.732;7.346;2023-02-26T01:27:34;97488.09;;;-1.07;63.85
71996;BME280;59862;47.732;7.346;2023-02-26T01:30:02;97485.83;;;-1.12;63.84
71996;BME280;59862;47.732;7.346;2023-02-26T01:32:42;97485.12;;;-1.14;63.89
71996;BME280;59862;47.732;7.346;2023-02-26T01:35:41;97482.25;;;-1.16;63.82
71996;BME280;59862;47.732;7.346;2023-02-26T01:43:34;97487.53;;;-1.27;64.59
71996;BME280;59862;47.732;7.346;2023-02-26T01:49:11;97487.19;;;-1.34;65.40
71996;BME280;59862;47.732;7.346;2023-02-26T01:51:51;97494.39;;;-1.41;65.67
71996;BME280;59862;47.732;7.346;2023-02-26T01:54:21;97489.13;;;-1.41;66.23
71996;BME280;59862;47.732;7.346;2023-02-26T01:57:16;97491.99;;;-1.44;66.37
71996;BME280;59862;47.732;7.346;2023-02-26T01:59:23;97494.41;;;-1.52;66.65
71996;BME280;59862;47.732;7.346;2023-02-26T02:01:55;97494.03;;;-1.54;66.63
71996;BME280;59862;47.732;7.346;2023-02-26T02:04:24;97494.88;;;-1.53;67.04
71996;BME280;59862;47.732;7.346;2023-02-26T02:06:53;97493.45;;;-1.57;67.14
71996;BME280;59862;47.732;7.346;2023-02-26T02:09:20;97494.89;;;-1.59;67.44
71996;BME280;59862;47.732;7.346;2023-02-26T02:11:56;97498.02;;;-1.65;67.61
71996;BME280;59862;47.732;7.346;2023-02-26T02:14:23;97510.08;;;-1.68;67.74
71996;BME280;59862;47.732;7.346;2023-02-26T02:17:06;97505.42;;;-1.70;67.81
71996;BME280;59862;47.732;7.346;2023-02-26T02:31:28;97508.77;;;-1.79;68.69
71996;BME280;59862;47.732;7.346;2023-02-26T02:34:00;97521.08;;;-1.85;68.78
71996;BME280;59862;47.732;7.346;2023-02-26T02:39:29;97509.70;;;-1.96;69.25
71996;BME280;59862;47.732;7.346;2023-02-26T02:42:15;97513.06;;;-2.00;69.43
71996;BME280;59862;47.732;7.346;2023-02-26T02:44:38;97516.63;;;-2.01;69.02
71996;BME280;59862;47.732;7.346;2023-02-26T02:47:08;97506.24;;;-2.02;69.34
71996;BME280;59862;47.732;7.346;2023-02-26T02:49:54;97509.34;;;-2.03;69.43
71996;BME280;59862;47.732;7.346;2023-02-26T02:52:25;97508.84;;;-2.08;69.51
71996;BME280;59862;47.732;7.346;2023-02-26T02:54:58;97514.48;;;-2.07;69.38
71996;BME280;59862;47.732;7.346;2023-02-26T02:57:46;97517.58;;;-2.13;69.46
71996;BME280;59862;47.732;7.346;2023-02-26T03:00:13;97526.31;;;-2.12;69.65
71996;BME280;59862;47.732;7.346;2023-02-26T03:02:51;97518.77;;;-2.17;69.69
71996;BME280;59862;47.732;7.346;2023-02-26T03:05:18;97526.28;;;-2.18;70.01
71996;BME280;59862;47.732;7.346;2023-02-26T03:07:55;97517.68;;;-2.20;69.90
71996;BME280;59862;47.732;7.346;2023-02-26T03:10:19;97509.17;;;-2.29;69.88
71996;BME280;59862;47.732;7.346;2023-02-26T03:12:47;97528.66;;;-2.26;70.14
71996;BME280;59862;47.732;7.346;2023-02-26T03:15:17;97528.88;;;-2.29;70.17
71996;BME280;59862;47.732;7.346;2023-02-26T03:20:41;97529.60;;;-2.33;70.45
71996;BME280;59862;47.732;7.346;2023-02-26T03:23:21;97530.66;;;-2.35;70.60
71996;BME280;59862;47.732;7.346;2023-02-26T03:29:05;97537.95;;;-2.39;70.47
71996;BME280;59862;47.732;7.346;2023-02-26T03:31:43;97539.02;;;-2.41;70.74
71996;BME280;59862;47.732;7.346;2023-02-26T03:36:56;97544.86;;;-2.43;70.76
71996;BME280;59862;47.732;7.346;2023-02-26T03:39:31;97545.20;;;-2.42;70.99
71996;BME280;59862;47.732;7.346;2023-02-26T03:42:19;97553.33;;;-2.45;70.88
71996;BME280;59862;47.732;7.346;2023-02-26T03:45:01;97548.67;;;-2.47;71.16
71996;BME280;59862;47.732;7.346;2023-02-26T03:47:29;97557.27;;;-2.45;70.94
71996;BME280;59862;47.732;7.346;2023-02-26T03:50:07;97561.21;;;-2.45;71.10
71996;BME280;59862;47.732;7.346;2023-02-26T03:52:38;97554.98;;;-2.44;70.98
71996;BME280;59862;47.732;7.346;2023-02-26T03:55:13;97551.64;;;-2.46;70.87
71996;BME280;59862;47.732;7.346;2023-02-26T03:57:36;97556.89;;;-2.46;71.14
71996;BME280;59862;47.732;7.346;2023-02-26T04:00:06;97561.21;;;-2.45;70.92
71996;BME280;59862;47.732;7.346;2023-02-26T04:02:44;97561.21;;;-2.45;71.03
71996;BME280;59862;47.732;7.346;2023-02-26T04:05:34;97560.49;;;-2.47;70.95
71996;BME280;59862;47.732;7.346;2023-02-26T04:08:02;97568.24;;;-2.46;71.21
71996;BME280;59862;47.732;7.346;2023-02-26T04:10:39;97571.13;;;-2.43;71.07
71996;BME280;59862;47.732;7.346;2023-02-26T04:13:03;97576.13;;;-2.40;71.09
71996;BME280;59862;47.732;7.346;2023-02-26T04:15:30;97582.61;;;-2.33;70.76
71996;BME280;59862;47.732;7.346;2023-02-26T04:17:58;97582.74;;;-2.29;70.77
71996;BME280;59862;47.732;7.346;2023-02-26T04:20:25;97591.00;;;-2.28;70.74
71996;BME280;59862;47.732;7.346;2023-02-26T04:22:53;97586.72;;;-2.23;70.73
71996;BME280;59862;47.732;7.346;2023-02-26T04:25:20;97591.84;;;-2.22;70.70
71996;BME280;59862;47.732;7.346;2023-02-26T04:27:48;97585.66;;;-2.21;70.26
71996;BME280;59862;47.732;7.346;2023-02-26T04:30:15;97586.59;;;-2.22;70.32
71996;BME280;59862;47.732;7.346;2023-02-26T04:32:43;97592.69;;;-2.21;70.24
71996;BME280;59862;47.732;7.346;2023-02-26T04:35:11;97582.74;;;-2.29;70.27
71996;BME280;59862;47.732;7.346;2023-02-26T04:37:38;97587.27;;;-2.31;70.54
71996;BME280;59862;47.732;7.346;2023-02-26T04:40:07;97578.88;;;-2.42;70.87
71996;BME280;59862;47.732;7.346;2023-02-26T04:42:34;97575.66;;;-2.45;71.19
71996;BME280;59862;47.732;7.346;2023-02-26T04:45:09;97580.88;;;-2.51;71.34
71996;BME280;59862;47.732;7.346;2023-02-26T04:47:37;97572.61;;;-2.57;71.46
71996;BME280;59862;47.732;7.346;2023-02-26T04:50:05;97579.36;;;-2.71;71.82
71996;BME280;59862;47.732;7.346;2023-02-26T04:52:33;97574.33;;;-2.74;71.99
71996;BME280;59862;47.732;7.346;2023-02-26T04:55:00;97580.89;;;-2.74;72.16
71996;BME280;59862;47.732;7.346;2023-02-26T04:57:27;97573.72;;;-2.78;72.21
71996;BME280;59862;47.732;7.346;2023-02-26T04:59:55;97571.94;;;-2.77;72.41
71996;BME280;59862;47.732;7.346;2023-02-26T05:02:22;97575.36;;;-2.82;72.46
71996;BME280;59862;47.732;7.346;2023-02-26T05:04:50;97569.73;;;-2.83;72.43
71996;BME280;59862;47.732;7.346;2023-02-26T05:07:17;97569.73;;;-2.83;72.58
71996;BME280;59862;47.732;7.346;2023-02-26T05:09:45;97566.77;;;-2.84;72.74
71996;BME280;59862;47.732;7.346;2023-02-26T05:12:12;97579.77;;;-2.83;72.84
71996;BME280;59862;47.732;7.346;2023-02-26T05:14:40;97578.91;;;-2.89;72.79
71996;BME280;59862;47.732;7.346;2023-02-26T05:17:08;97572.30;;;-2.94;72.91
71996;BME280;59862;47.732;7.346;2023-02-26T05:19:36;97569.67;;;-2.94;72.89
71996;BME280;59862;47.732;7.346;2023-02-26T05:22:03;97574.70;;;-2.97;73.08
71996;BME280;59862;47.732;7.346;2023-02-26T05:24:31;97566.09;;;-2.99;73.30
71996;BME280;59862;47.732;7.346;2023-02-26T05:26:58;97568.09;;;-3.02;73.40
71996;BME280;59862;47.732;7.346;2023-02-26T05:29:25;97563.80;;;-3.03;73.44
71996;BME280;59862;47.732;7.346;2023-02-26T05:31:53;97565.11;;;-3.03;73.46
71996;BME280;59862;47.732;7.346;2023-02-26T05:34:20;97570.58;;;-3.07;73.58
71996;BME280;59862;47.732;7.346;2023-02-26T05:36:48;97573.41;;;-3.10;73.62
71996;BME280;59862;47.732;7.346;2023-02-26T05:39:15;97572.80;;;-3.13;73.75
71996;BME280;59862;47.732;7.346;2023-02-26T05:41:42;97583.76;;;-3.14;73.87
71996;BME280;59862;47.732;7.346;2023-02-26T05:44:12;97592.47;;;-3.13;73.93
71996;BME280;59862;47.732;7.346;2023-02-26T05:46:39;97594.63;;;-3.13;74.00
71996;BME280;59862;47.732;7.346;2023-02-26T05:49:06;97593.53;;;-3.16;74.09
71996;BME280;59862;47.732;7.346;2023-02-26T05:51:34;97607.87;;;-3.14;74.08
71996;BME280;59862;47.732;7.346;2023-02-26T05:54:01;97602.71;;;-3.16;74.25
71996;BME280;59862;47.732;7.346;2023-02-26T05:56:29;97596.16;;;-3.16;74.10
71996;BME280;59862;47.732;7.346;2023-02-26T05:58:56;97602.95;;;-3.19;74.16
71996;BME280;59862;47.732;7.346;2023-02-26T06:01:24;97601.63;;;-3.19;74.12
71996;BME280;59862;47.732;7.346;2023-02-26T06:03:51;97604.34;;;-3.20;74.29
71996;BME280;59862;47.732;7.346;2023-02-26T06:06:19;97601.70;;;-3.26;74.51
71996;BME280;59862;47.732;7.346;2023-02-26T06:08:47;97597.82;;;-3.33;74.38
71996;BME280;59862;47.732;7.346;2023-02-26T06:11:15;97604.17;;;-3.30;74.58
71996;BME280;59862;47.732;7.346;2023-02-26T06:13:42;97603.45;;;-3.32;74.57
71996;BME280;59862;47.732;7.346;2023-02-26T06:16:09;97604.84;;;-3.33;74.55
71996;BME280;59862;47.732;7.346;2023-02-26T06:18:37;97607.97;;;-3.34;74.73
71996;BME280;59862;47.732;7.346;2023-02-26T06:21:04;97605.69;;;-3.33;74.58
71996;BME280;59862;47.732;7.346;2023-02-26T06:23:32;97612.48;;;-3.36;74.65
71996;BME280;59862;47.732;7.346;2023-02-26T06:25:59;97608.37;;;-3.40;74.77
71996;BME280;59862;47.732;7.346;2023-02-26T06:28:27;97616.50;;;-3.37;74.71
71996;BME280;59862;47.732;7.346;2023-02-26T06:30:54;97609.02;;;-3.36;74.73
71996;BME280;59862;47.732;7.346;2023-02-26T06:33:22;97613.79;;;-3.36;74.80
71996;BME280;59862;47.732;7.346;2023-02-26T06:35:50;97620.34;;;-3.36;74.69
71996;BME280;59862;47.732;7.346;2023-02-26T06:38:37;97615.19;;;-3.37;74.70
71996;BME280;59862;47.732;7.346;2023-02-26T06:41:05;97618.66;;;-3.37;74.72
71996;BME280;59862;47.732;7.346;2023-02-26T06:43:32;97617.61;;;-3.34;74.81
71996;BME280;59862;47.732;7.346;2023-02-26T06:45:59;97607.23;;;-3.36;74.78
71996;BME280;59862;47.732;7.346;2023-02-26T06:48:27;97608.89;;;-3.35;74.85
71996;BME280;59862;47.732;7.346;2023-02-26T06:50:55;97612.95;;;-3.36;74.87
71996;BME280;59862;47.732;7.346;2023-02-26T06:53:23;97619.67;;;-3.27;74.73
71996;BME280;59862;47.732;7.346;2023-02-26T06:55:51;97552.89;;;-3.64;74.54
71996;BME280;59862;47.732;7.346;2023-02-26T06:58:19;97621.98;;;-3.22;74.46
71996;BME280;59862;47.732;7.346;2023-02-26T07:00:47;97628.07;;;-3.22;74.47
71996;BME280;59862;47.732;7.346;2023-02-26T07:03:16;97638.59;;;-3.16;74.42
71996;BME280;59862;47.732;7.346;2023-02-26T07:05:45;97643.90;;;-3.11;74.20
71996;BME280;59862;47.732;7.346;2023-02-26T07:08:13;97652.18;;;-3.04;73.95
71996;BME280;59862;47.732;7.346;2023-02-26T07:10:41;97656.38;;;-3.01;73.77
71996;BME280;59862;47.732;7.346;2023-02-26T07:13:10;97662.12;;;-2.96;73.34
71996;BME280;59862;47.732;7.346;2023-02-26T07:15:38;97675.06;;;-2.88;73.25
71996;BME280;59862;47.732;7.346;2023-02-26T07:18:06;97681.23;;;-2.76;72.34
71996;BME280;59862;47.732;7.346;2023-02-26T07:20:34;97685.05;;;-2.75;72.39
71996;BME280;59862;47.732;7.346;2023-02-26T07:23:01;97692.92;;;-2.62;72.54
71996;BME280;59862;47.732;7.346;2023-02-26T07:25:29;97692.95;;;-2.51;71.85
71996;BME280;59862;47.732;7.346;2023-02-26T07:27:56;97699.31;;;-2.48;71.13
71996;BME280;59862;47.732;7.346;2023-02-26T07:30:25;97694.85;;;-2.35;71.27
71996;BME280;59862;47.732;7.346;2023-02-26T07:32:53;97693.81;;;-2.27;70.66
71996;BME280;59862;47.732;7.346;2023-02-26T07:35:20;97697.34;;;-2.15;70.36
71996;BME280;59862;47.732;7.346;2023-02-26T07:37:48;97692.86;;;-2.02;70.14
71996;BME280;59862;47.732;7.346;2023-02-26T07:40:15;97697.78;;;-1.98;69.88
71996;BME280;59862;47.732;7.346;2023-02-26T07:42:43;97695.66;;;-1.87;69.37
71996;BME280;59862;47.732;7.346;2023-02-26T07:45:11;97691.16;;;-1.69;69.04
71996;BME280;59862;47.732;7.346;2023-02-26T07:47:38;97693.50;;;-1.36;68.25
71996;BME280;59862;47.732;7.346;2023-02-26T07:50:06;97702.64;;;-1.07;67.18
71996;BME280;59862;47.732;7.346;2023-02-26T07:52:34;97696.30;;;-0.88;66.21
71996;BME280;59862;47.732;7.346;2023-02-26T07:55:01;97701.33;;;-1.13;66.27
71996;BME280;59862;47.732;7.346;2023-02-26T07:57:29;97700.38;;;-1.06;66.59
71996;BME280;59862;47.732;7.346;2023-02-26T07:59:56;97697.27;;;-0.89;66.40
71996;BME280;59862;47.732;7.346;2023-02-26T08:02:24;97695.79;;;-0.60;65.41
71996;BME280;59862;47.732;7.346;2023-02-26T08:04:52;97693.02;;;-0.58;65.63
71996;BME280;59862;47.732;7.346;2023-02-26T08:07:20;97691.27;;;-0.21;64.70
71996;BME280;59862;47.732;7.346;2023-02-26T08:09:47;97690.59;;;0.04;63.60
71996;BME280;59862;47.732;7.346;2023-02-26T08:12:15;97687.15;;;-0.08;64.36
71996;BME280;59862;47.732;7.346;2023-02-26T08:14:42;97687.30;;;0.17;63.37
71996;BME280;59862;47.732;7.346;2023-02-26T08:17:09;97682.06;;;0.52;62.09
71996;BME280;59862;47.732;7.346;2023-02-26T08:19:38;97672.12;;;0.30;61.52
71996;BME280;59862;47.732;7.346;2023-02-26T08:22:06;97682.91;;;0.73;61.00
71996;BME280;59862;47.732;7.346;2023-02-26T08:24:33;97685.27;;;0.41;61.81
71996;BME280;59862;47.732;7.346;2023-02-26T08:27:00;97677.45;;;-0.08;63.07
71996;BME280;59862;47.732;7.346;2023-02-26T08:29:28;97682.02;;;0.17;63.22
71996;BME280;59862;47.732;7.346;2023-02-26T08:31:55;97679.86;;;0.22;63.18
71996;BME280;59862;47.732;7.346;2023-02-26T08:34:23;97681.27;;;0.67;61.50
71996;BME280;59862;47.732;7.346;2023-02-26T08:36:50;97672.37;;;0.68;61.02
71996;BME280;59862;47.732;7.346;2023-02-26T08:39:17;97671.34;;;0.80;60.66
71996;BME280;59862;47.732;7.346;2023-02-26T08:41:45;97666.23;;;1.03;60.02
71996;BME280;59862;47.732;7.346;2023-02-26T08:44:13;97682.02;;;0.78;59.47
71996;BME280;59862;47.732;7.346;2023-02-26T08:46:40;97680.42;;;1.76;58.50
71996;BME280;59862;47.732;7.346;2023-02-26T08:49:08;97694.59;;;2.19;56.25
71996;BME280;59862;47.732;7.346;2023-02-26T08:51:35;97690.47;;;2.49;55.56
71996;BME280;59862;47.732;7.346;2023-02-26T08:54:02;97689.05;;;2.64;54.85
71996;BME280;59862;47.732;7.346;2023-02-26T08:56:30;97704.26;;;3.41;53.35
71996;BME280;59862;47.732;7.346;2023-02-26T08:58:58;97700.36;;;3.22;52.68
71996;BME280;59862;47.732;7.346;2023-02-26T09:01:25;97691.64;;;2.79;53.93
71996;BME280;59862;47.732;7.346;2023-02-26T09:03:53;97685.89;;;2.51;53.75
71996;BME280;59862;47.732;7.346;2023-02-26T09:06:20;97683.06;;;1.76;55.14
71996;BME280;59862;47.732;7.346;2023-02-26T09:08:48;97686.28;;;1.30;56.75
71996;BME280;59862;47.732;7.346;2023-02-26T09:11:15;97685.59;;;1.53;56.94
71996;BME280;59862;47.732;7.346;2023-02-26T09:13:43;97690.12;;;1.57;55.72
71996;BME280;59862;47.732;7.346;2023-02-26T09:16:10;97685.78;;;1.71;55.89
71996;BME280;59862;47.732;7.346;2023-02-26T09:18:37;97683.02;;;1.82;56.53
71996;BME280;59862;47.732;7.346;2023-02-26T09:21:05;97687.36;;;1.43;56.70
71996;BME280;59862;47.732;7.346;2023-02-26T09:23:32;97690.41;;;1.88;54.45
71996;BME280;59862;47.732;7.346;2023-02-26T09:26:00;97689.20;;;1.77;54.65
71996;BME280;59862;47.732;7.346;2023-02-26T09:28:27;97677.59;;;2.50;52.22
71996;BME280;59862;47.732;7.346;2023-02-26T09:30:55;97695.22;;;2.55;51.98
71996;BME280;59862;47.732;7.346;2023-02-26T09:33:23;97694.92;;;2.58;50.51
71996;BME280;59862;47.732;7.346;2023-02-26T09:35:52;97686.77;;;2.56;49.77
71996;BME280;59862;47.732;7.346;2023-02-26T09:38:19;97684.37;;;2.20;50.60
71996;BME280;59862;47.732;7.346;2023-02-26T09:43:48;97684.48;;;2.47;50.23
71996;BME280;59862;47.732;7.346;2023-02-26T09:46:38;97692.42;;;2.66;48.53
71996;BME280;59862;47.732;7.346;2023-02-26T09:52:02;97682.03;;;1.83;50.62
71996;BME280;59862;47.732;7.346;2023-02-26T09:54:27;97701.84;;;2.26;50.17
71996;BME280;59862;47.732;7.346;2023-02-26T09:56:57;97701.06;;;2.49;49.58
71996;BME280;59862;47.732;7.346;2023-02-26T09:59:28;97718.58;;;2.27;49.67
71996;BME280;59862;47.732;7.346;2023-02-26T10:02:31;97715.72;;;1.31;51.72
71996;BME280;59862;47.732;7.346;2023-02-26T10:05:14;97725.75;;;1.07;52.87
71996;BME280;59862;47.732;7.346;2023-02-26T10:10:34;97713.33;;;2.92;49.34
71996;BME280;59862;47.732;7.346;2023-02-26T10:13:01;97726.72;;;2.39;49.09
71996;BME280;59862;47.732;7.346;2023-02-26T10:15:41;97733.41;;;2.53;49.82
71996;BME280;59862;47.732;7.346;2023-02-26T10:18:12;97722.55;;;2.27;49.62
71996;BME280;59862;47.732;7.346;2023-02-26T10:23:43;97742.84;;;1.18;51.38
71996;BME280;59862;47.732;7.346;2023-02-26T10:26:32;97732.27;;;1.18;51.88
71996;BME280;59862;47.732;7.346;2023-02-26T10:29:26;97731.42;;;1.03;52.62
71996;BME280;59862;47.732;7.346;2023-02-26T10:32:14;97733.18;;;0.72;53.84
71996;BME280;59862;47.732;7.346;2023-02-26T10:39:48;97720.92;;;1.12;54.66
71996;BME280;59862;47.732;7.346;2023-02-26T10:42:36;97720.97;;;1.96;52.42
71996;BME280;59862;47.732;7.346;2023-02-26T10:45:14;97729.43;;;2.24;51.08
71996;BME280;59862;47.732;7.346;2023-02-26T10:47:33;97729.55;;;2.13;50.41
71996;BME280;59862;47.732;7.346;2023-02-26T10:50:11;97717.38;;;2.16;50.36
71996;BME280;59862;47.732;7.346;2023-02-26T10:52:38;97702.42;;;1.77;51.15
71996;BME280;59862;47.732;7.346;2023-02-26T10:55:33;97734.92;;;2.36;50.25
71996;BME280;59862;47.732;7.346;2023-02-26T10:58:14;97731.80;;;2.65;49.33
71996;BME280;59862;47.732;7.346;2023-02-26T11:00:48;97738.17;;;2.82;49.16
71996;BME280;59862;47.732;7.346;2023-02-26T11:03:20;97744.84;;;3.65;47.35
71996;BME280;59862;47.732;7.346;2023-02-26T11:05:48;97738.58;;;4.24;46.29
71996;BME280;59862;47.732;7.346;2023-02-26T11:08:29;97747.55;;;4.27;46.32
71996;BME280;59862;47.732;7.346;2023-02-26T11:10:59;97738.11;;;4.11;45.57
71996;BME280;59862;47.732;7.346;2023-02-26T11:13:29;97740.03;;;3.78;46.97
71996;BME280;59862;47.732;7.346;2023-02-26T11:16:08;97739.49;;;3.24;47.58
71996;BME280;59862;47.732;7.346;2023-02-26T11:18:39;97747.49;;;4.37;46.17
71996;BME280;59862;47.732;7.346;2023-02-26T11:21:08;97753.85;;;3.45;47.49
71996;BME280;59862;47.732;7.346;2023-02-26T11:23:37;97761.19;;;2.24;48.90
71996;BME280;59862;47.732;7.346;2023-02-26T11:26:13;97755.55;;;2.80;48.33
71996;BME280;59862;47.732;7.346;2023-02-26T11:28:46;97766.77;;;2.69;48.92
71996;BME280;59862;47.732;7.346;2023-02-26T11:31:19;97762.25;;;2.65;49.45
71996;BME280;59862;47.732;7.346;2023-02-26T11:33:52;97754.70;;;2.89;48.74
71996;BME280;59862;47.732;7.346;2023-02-26T11:36:25;97757.03;;;2.50;49.36
71996;BME280;59862;47.732;7.346;2023-02-26T11:39:00;97752.09;;;1.98;51.16
71996;BME280;59862;47.732;7.346;2023-02-26T11:41:27;97743.96;;;1.71;52.70
71996;BME280;59862;47.732;7.346;2023-02-26T11:44:07;97744.39;;;1.06;56.31
71996;BME280;59862;47.732;7.346;2023-02-26T11:46:38;97754.20;;;0.73;58.38
71996;BME280;59862;47.732;7.346;2023-02-26T11:49:05;97749.41;;;0.47;60.16
71996;BME280;59862;47.732;7.346;2023-02-26T11:51:34;97752.56;;;0.41;60.45
71996;BME280;59862;47.732;7.346;2023-02-26T11:54:02;97763.65;;;0.50;60.26
71996;BME280;59862;47.732;7.346;2023-02-26T11:56:37;97750.60;;;1.10;58.82
71996;BME280;59862;47.732;7.346;2023-02-26T12:01:47;97740.02;;;2.24;54.83
71996;BME280;59862;47.732;7.346;2023-02-26T12:04:21;97730.56;;;1.87;54.67
71996;BME280;59862;47.732;7.346;2023-02-26T12:06:50;97735.28;;;1.59;55.07
71996;BME280;59862;47.732;7.346;2023-02-26T12:09:20;97729.16;;;1.19;56.47
71996;BME280;59862;47.732;7.346;2023-02-26T12:22:47;97739.91;;;1.06;59.17
71996;BME280;59862;47.732;7.346;2023-02-26T12:34:01;97733.33;;;1.51;58.10
71996;BME280;59862;47.732;7.346;2023-02-26T12:51:01;97738.80;;;3.36;42.59
71996;BME280;59862;47.732;7.346;2023-02-26T12:54:01;97743.91;;;3.10;41.32
71996;BME280;59862;47.732;7.346;2023-02-26T13:08:14;97722.11;;;3.02;45.97
71996;BME280;59862;47.732;7.346;2023-02-26T13:11:16;97727.47;;;2.45;46.72
71996;BME280;59862;47.732;7.346;2023-02-26T13:14:22;97729.05;;;1.94;48.62
71996;BME280;59862;47.732;7.346;2023-02-26T13:19:43;97724.46;;;1.72;50.60
71996;BME280;59862;47.732;7.346;2023-02-26T13:22:22;97742.03;;;2.83;48.51
71996;BME280;59862;47.732;7.346;2023-02-26T13:25:21;97741.05;;;3.07;47.36
71996;BME280;59862;47.732;7.346;2023-02-26T13:27:50;97747.02;;;3.29;47.34
71996;BME280;59862;47.732;7.346;2023-02-26T13:32:57;97746.53;;;2.10;48.44
71996;BME280;59862;47.732;7.346;2023-02-26T13:35:35;97740.70;;;1.73;50.16
71996;BME280;59862;47.732;7.346;2023-02-26T13:38:19;97734.81;;;1.60;50.87
71996;BME280;59862;47.732;7.346;2023-02-26T13:40:50;97736.91;;;1.66;50.63
71996;BME280;59862;47.732;7.346;2023-02-26T13:51:28;97747.19;;;2.18;49.57
71996;BME280;59862;47.732;7.346;2023-02-26T13:54:00;97747.67;;;2.08;49.79
71996;BME280;59862;47.732;7.346;2023-02-26T14:01:47;97764.86;;;1.43;52.19
71996;BME280;59862;47.732;7.346;2023-02-26T14:12:01;97753.10;;;1.12;55.49
71996;BME280;59862;47.732;7.346;2023-02-26T14:14:38;97755.58;;;1.19;55.82
71996;BME280;59862;47.732;7.346;2023-02-26T14:22:32;97747.29;;;1.33;54.94
71996;BME280;59862;47.732;7.346;2023-02-26T14:27:48;97744.81;;;1.81;53.99
71996;BME280;59862;47.732;7.346;2023-02-26T14:30:18;97752.41;;;3.73;49.25
71996;BME280;59862;47.732;7.346;2023-02-26T14:35:28;97753.70;;;4.59;46.23
71996;BME280;59862;47.732;7.346;2023-02-26T14:38:26;97755.70;;;4.43;46.00
71996;BME280;59862;47.732;7.346;2023-02-26T14:41:23;97768.37;;;2.75;48.53
71996;BME280;59862;47.732;7.346;2023-02-26T14:43:55;97769.34;;;2.26;49.23
71996;BME280;59862;47.732;7.346;2023-02-26T14:46:21;97766.71;;;1.92;49.73
71996;BME280;59862;47.732;7.346;2023-02-26T14:48:48;97766.70;;;1.68;50.43
71996;BME280;59862;47.732;7.346;2023-02-26T14:51:43;97760.27;;;1.45;50.26
71996;BME280;59862;47.732;7.346;2023-02-26T14:54:18;97770.84;;;1.45;50.57
71996;BME280;59862;47.732;7.346;2023-02-26T14:57:02;97766.71;;;1.52;51.29
71996;BME280;59862;47.732;7.346;2023-02-26T15:02:31;97770.14;;;1.59;51.32
71996;BME280;59862;47.732;7.346;2023-02-26T15:07:47;97771.83;;;1.29;56.69
71996;BME280;59862;47.732;7.346;2023-02-26T15:10:35;97775.69;;;0.90;60.05
71996;BME280;59862;47.732;7.346;2023-02-26T15:13:07;97769.45;;;0.91;61.50
71996;BME280;59862;47.732;7.346;2023-02-26T15:15:44;97785.28;;;0.70;62.09
71996;BME280;59862;47.732;7.346;2023-02-26T15:28:53;97787.87;;;0.60;65.27
71996;BME280;59862;47.732;7.346;2023-02-26T15:31:30;97784.23;;;0.35;65.88
71996;BME280;59862;47.732;7.346;2023-02-26T15:33:58;97771.45;;;0.25;65.99
71996;BME280;59862;47.732;7.346;2023-02-26T15:36:29;97786.80;;;0.20;66.97
71996;BME280;59862;47.732;7.346;2023-02-26T15:39:01;97786.77;;;0.37;66.78
71996;BME280;59862;47.732;7.346;2023-02-26T15:41:32;97782.20;;;0.33;66.67
71996;BME280;59862;47.732;7.346;2023-02-26T15:46:53;97785.13;;;0.51;65.01
71996;BME280;59862;47.732;7.346;2023-02-26T15:49:32;97778.68;;;0.44;64.54
71996;BME280;59862;47.732;7.346;2023-02-26T15:51:59;97794.52;;;0.44;64.37
71996;BME280;59862;47.732;7.346;2023-02-26T15:54:51;97790.60;;;0.64;63.37
71996;BME280;59862;47.732;7.346;2023-02-26T15:56:58;97786.47;;;0.71;62.76
71996;BME280;59862;47.732;7.346;2023-02-26T15:59:29;97786.03;;;0.61;62.49
71996;BME280;59862;47.732;7.346;2023-02-26T16:02:00;97804.61;;;0.70;62.88
71996;BME280;59862;47.732;7.346;2023-02-26T16:04:26;97800.98;;;0.71;63.04
71996;BME280;59862;47.732;7.346;2023-02-26T16:06:56;97793.53;;;0.76;62.52